Time;durP1;ratioP1;P1;durP2;ratioP2;P2;SDS_P1;SDS_P2;PMS_P1;PMS_P2;Temp;Humidity;BMP_temperature;BMP_pressure;BME280_temperature;BME280_humidity;BME280_pressure;Samples;Min_cycle;Max_cycle;Signal;HPM_P1;HPM_P2
2022/10/24 00:01:51;;;;;;;12.07;3.10;;;;;;;;;;6147545;23;20018;-76
2022/10/24 00:04:17;;;;;;;5.65;2.17;;;;;;;;;;6099266;23;20095;-76
2022/10/24 00:06:43;;;;;;;4.30;2.50;;;;;;;;;;6147810;23;20028;-76
2022/10/24 00:09:09;;;;;;;5.38;2.63;;;;;;;;;;6147447;23;20021;-76
2022/10/24 00:11:37;;;;;;;6.70;2.20;;;;;;;;;;6148349;23;20044;-76
2022/10/24 00:14:03;;;;;;;6.22;1.98;;;;;;;;;;6147538;23;20010;-76
2022/10/24 00:16:29;;;;;;;4.47;1.88;;;;;;;;;;6147505;23;20016;-76
2022/10/24 00:18:56;;;;;;;3.05;1.70;;;;;;;;;;6147855;23;20018;-76
2022/10/24 00:21:22;;;;;;;4.43;2.00;;;;;;;;;;6147822;23;20044;-76
2022/10/24 00:23:48;;;;;;;4.65;2.28;;;;;;;;;;6123364;23;20024;-76
2022/10/24 00:26:15;;;;;;;4.80;1.83;;;;;;;;;;6123670;23;20243;-76
2022/10/24 00:28:41;;;;;;;6.05;2.10;;;;;;;;;;6145761;23;20013;-76
2022/10/24 00:31:11;;;;;;;5.97;2.08;;;;;;;;;;6147857;23;20467;-76
2022/10/24 00:33:37;;;;;;;3.40;1.98;;;;;;;;;;6148011;23;20010;-76
2022/10/24 00:36:03;;;;;;;3.90;1.88;;;;;;;;;;6147667;23;20020;-76
2022/10/24 00:38:29;;;;;;;4.15;1.55;;;;;;;;;;6147524;23;20018;-76
2022/10/24 00:40:55;;;;;;;5.18;1.90;;;;;;;;;;6148487;23;20400;-76
2022/10/24 00:43:25;;;;;;;4.03;2.63;;;;;;;;;;6147726;23;20465;-76
2022/10/24 00:45:58;;;;;;;4.63;2.33;;;;;;;;;;6147935;23;20107;-76
2022/10/24 00:48:27;;;;;;;10.32;2.97;;;;;;;;;;6147285;23;20017;-77
2022/10/24 00:50:56;;;;;;;3.55;1.45;;;;;;;;;;6148163;23;20025;-76
2022/10/24 00:53:23;;;;;;;4.43;2.08;;;;;;;;;;6098617;23;20014;-76
2022/10/24 00:55:51;;;;;;;8.43;2.38;;;;;;;;;;6147535;23;20068;-76
2022/10/24 00:58:19;;;;;;;12.55;2.13;;;;;;;;;;6123729;23;20017;-76
2022/10/24 01:00:45;;;;;;;7.50;2.35;;;;;;;;;;6147239;23;20379;-76
2022/10/24 01:03:11;;;;;;;4.18;2.58;;;;;;;;;;6074573;23;20014;-76
2022/10/24 01:05:55;;;;;;;8.07;2.42;;;;;;;;;;6147816;23;20017;-76
2022/10/24 01:08:24;;;;;;;5.93;2.42;;;;;;;;;;6122119;23;20024;-76
2022/10/24 01:11:26;;;;;;;6.28;2.90;;;;;;;;;;6148164;23;20013;-76
2022/10/24 01:13:59;;;;;;;3.35;2.08;;;;;;;;;;6006782;23;20151;-76
2022/10/24 01:16:25;;;;;;;6.63;2.03;;;;;;;;;;6125272;23;20033;-76
2022/10/24 01:18:55;;;;;;;3.65;2.17;;;;;;;;;;6150366;23;20017;-76
2022/10/24 01:21:35;;;;;;;7.15;3.72;;;;;;;;;;6149676;23;20021;-76
2022/10/24 01:24:01;;;;;;;5.22;2.40;;;;;;;;;;6150206;23;20040;-76
2022/10/24 01:26:33;;;;;;;5.75;2.28;;;;;;;;;;6100574;23;20017;-76
2022/10/24 01:28:59;;;;;;;3.70;2.05;;;;;;;;;;6149320;23;20020;-76
2022/10/24 01:31:35;;;;;;;4.90;2.17;;;;;;;;;;6149220;23;20097;-76
2022/10/24 01:34:04;;;;;;;4.78;1.70;;;;;;;;;;6149524;23;20400;-76
2022/10/24 01:36:38;;;;;;;2.53;1.58;;;;;;;;;;6149397;23;20396;-76
2022/10/24 01:39:06;;;;;;;6.35;2.65;;;;;;;;;;6149505;23;20471;-76
2022/10/24 01:41:33;;;;;;;4.40;2.30;;;;;;;;;;6149045;23;20021;-76
2022/10/24 01:44:08;;;;;;;7.90;2.30;;;;;;;;;;6150145;23;20021;-76
2022/10/24 01:46:39;;;;;;;7.13;2.40;;;;;;;;;;6149004;23;20028;-76
2022/10/24 01:49:14;;;;;;;10.25;3.88;;;;;;;;;;6149682;23;20020;-76
2022/10/24 01:51:41;;;;;;;5.00;2.35;;;;;;;;;;6150723;23;20025;-76
2022/10/24 01:54:08;;;;;;;3.55;1.83;;;;;;;;;;6151182;23;20021;-76
2022/10/24 01:56:34;;;;;;;4.68;2.40;;;;;;;;;;6150462;23;20045;-76
2022/10/24 01:59:07;;;;;;;5.15;2.50;;;;;;;;;;6150570;23;20031;-76
2022/10/24 02:01:34;;;;;;;6.93;2.50;;;;;;;;;;6149564;23;20028;-76
2022/10/24 02:04:03;;;;;;;5.90;2.67;;;;;;;;;;6150398;23;20571;-76
2022/10/24 02:06:34;;;;;;;5.35;2.05;;;;;;;;;;6150954;23;20399;-76
2022/10/24 02:09:04;;;;;;;4.25;2.17;;;;;;;;;;6150515;23;20014;-76
2022/10/24 02:11:30;;;;;;;7.35;2.10;;;;;;;;;;6150723;23;20024;-77
2022/10/24 02:13:59;;;;;;;8.48;3.30;;;;;;;;;;6126102;23;20089;-77
2022/10/24 02:16:25;;;;;;;6.53;2.60;;;;;;;;;;6125164;23;20009;-78
2022/10/24 02:18:53;;;;;;;9.07;3.25;;;;;;;;;;6125187;23;20347;-78
2022/10/24 02:21:20;;;;;;;9.35;2.78;;;;;;;;;;6149819;23;20309;-78
2022/10/24 02:24:06;;;;;;;6.47;2.75;;;;;;;;;;6150004;23;20674;-78
2022/10/24 02:26:38;;;;;;;4.57;2.40;;;;;;;;;;6101112;23;20412;-77
2022/10/24 02:29:07;;;;;;;11.43;3.30;;;;;;;;;;6148371;23;20060;-76
2022/10/24 02:31:35;;;;;;;5.05;3.33;;;;;;;;;;6148987;23;20242;-76
2022/10/24 02:34:03;;;;;;;4.43;2.67;;;;;;;;;;6124559;23;20048;-76
2022/10/24 02:36:31;;;;;;;7.57;2.97;;;;;;;;;;6149999;23;20009;-76
2022/10/24 02:38:57;;;;;;;6.68;3.17;;;;;;;;;;6125688;23;20018;-76
2022/10/24 02:41:29;;;;;;;7.03;2.92;;;;;;;;;;6151093;23;20087;-76
2022/10/24 02:43:55;;;;;;;5.25;2.30;;;;;;;;;;6152205;23;20049;-76
2022/10/24 02:46:22;;;;;;;5.13;3.20;;;;;;;;;;6150565;23;20013;-76
2022/10/24 02:48:57;;;;;;;7.85;2.70;;;;;;;;;;6124932;23;20017;-76
2022/10/24 02:51:25;;;;;;;7.18;2.42;;;;;;;;;;6149884;23;20014;-76
2022/10/24 02:53:52;;;;;;;5.60;2.10;;;;;;;;;;6125721;23;20072;-76
2022/10/24 02:56:18;;;;;;;7.88;2.92;;;;;;;;;;6125132;23;20068;-76
2022/10/24 02:58:44;;;;;;;9.10;2.78;;;;;;;;;;6149659;23;20056;-76
2022/10/24 03:01:10;;;;;;;9.07;3.80;;;;;;;;;;6125550;23;20018;-76
2022/10/24 03:03:36;;;;;;;7.10;2.95;;;;;;;;;;6150023;23;20449;-76
2022/10/24 03:06:02;;;;;;;9.20;2.72;;;;;;;;;;6150333;23;20021;-76
2022/10/24 03:08:28;;;;;;;3.88;2.40;;;;;;;;;;6126040;23;20048;-76
2022/10/24 03:10:55;;;;;;;6.20;3.08;;;;;;;;;;6125886;23;20041;-76
2022/10/24 03:13:21;;;;;;;10.48;3.08;;;;;;;;;;6150113;23;20064;-76
2022/10/24 03:15:47;;;;;;;7.22;2.78;;;;;;;;;;6149867;23;20401;-77
2022/10/24 03:18:13;;;;;;;6.28;2.25;;;;;;;;;;6125673;23;20128;-76
2022/10/24 03:20:39;;;;;;;8.23;2.92;;;;;;;;;;6149287;23;20440;-76
2022/10/24 03:23:05;;;;;;;6.22;2.60;;;;;;;;;;6101105;23;20018;-76
2022/10/24 03:25:31;;;;;;;7.88;3.50;;;;;;;;;;6150173;23;20017;-76
2022/10/24 03:27:58;;;;;;;9.32;2.53;;;;;;;;;;6149882;23;20017;-76
2022/10/24 03:30:24;;;;;;;7.88;3.22;;;;;;;;;;6124811;23;20356;-76
2022/10/24 03:32:50;;;;;;;10.05;2.85;;;;;;;;;;6125726;23;20044;-76
2022/10/24 03:35:16;;;;;;;9.90;3.20;;;;;;;;;;6101013;23;20009;-76
2022/10/24 03:37:42;;;;;;;3.30;1.98;;;;;;;;;;6124100;23;20029;-76
2022/10/24 03:40:09;;;;;;;5.30;2.55;;;;;;;;;;6149435;23;20596;-77
2022/10/24 03:42:35;;;;;;;9.65;2.72;;;;;;;;;;6125293;23;20018;-76
2022/10/24 03:45:01;;;;;;;8.15;2.30;;;;;;;;;;6149987;23;20093;-76
2022/10/24 03:47:28;;;;;;;8.35;3.47;;;;;;;;;;6149550;23;20102;-76
2022/10/24 03:49:54;;;;;;;7.13;3.58;;;;;;;;;;6125866;23;20020;-76
2022/10/24 03:52:20;;;;;;;10.35;2.65;;;;;;;;;;6149719;23;20093;-76
2022/10/24 03:54:46;;;;;;;10.93;2.47;;;;;;;;;;6076536;23;20101;-76
2022/10/24 03:57:12;;;;;;;5.68;2.35;;;;;;;;;;6149695;23;20411;-76
2022/10/24 03:59:38;;;;;;;5.40;2.40;;;;;;;;;;6125199;23;20049;-76
2022/10/24 04:02:04;;;;;;;4.97;2.25;;;;;;;;;;6149208;23;20021;-76
2022/10/24 04:04:31;;;;;;;8.30;2.83;;;;;;;;;;6149117;23;20021;-76
2022/10/24 04:06:59;;;;;;;9.65;3.00;;;;;;;;;;6149940;23;20044;-76
2022/10/24 04:09:25;;;;;;;5.25;2.60;;;;;;;;;;6149564;23;20013;-76
2022/10/24 04:11:52;;;;;;;4.57;2.83;;;;;;;;;;6149571;23;20009;-76
2022/10/24 04:14:18;;;;;;;8.02;2.53;;;;;;;;;;6148910;23;20021;-76
2022/10/24 04:16:44;;;;;;;7.55;3.25;;;;;;;;;;6150846;23;20059;-76
2022/10/24 04:19:11;;;;;;;6.60;2.75;;;;;;;;;;6124532;23;20104;-77
2022/10/24 04:21:37;;;;;;;5.05;2.33;;;;;;;;;;6150033;23;20025;-77
2022/10/24 04:24:03;;;;;;;5.75;2.45;;;;;;;;;;6147840;23;20345;-76
2022/10/24 04:26:30;;;;;;;6.57;3.08;;;;;;;;;;6149125;23;20018;-76
2022/10/24 04:28:56;;;;;;;5.10;2.50;;;;;;;;;;6124624;23;20075;-76
2022/10/24 04:31:22;;;;;;;9.20;3.40;;;;;;;;;;6149887;23;20017;-76
2022/10/24 04:33:48;;;;;;;9.88;3.45;;;;;;;;;;6148977;23;20045;-76
2022/10/24 04:36:14;;;;;;;5.00;2.40;;;;;;;;;;6100611;23;20017;-76
2022/10/24 04:38:40;;;;;;;7.13;2.83;;;;;;;;;;6076767;23;20024;-77
2022/10/24 04:41:06;;;;;;;3.83;2.45;;;;;;;;;;6149926;23;20474;-76
2022/10/24 04:43:32;;;;;;;5.97;2.28;;;;;;;;;;6149167;23;20044;-76
2022/10/24 04:45:58;;;;;;;5.65;2.90;;;;;;;;;;6147939;23;20014;-77
2022/10/24 04:48:24;;;;;;;8.23;2.75;;;;;;;;;;6123820;23;20040;-76
2022/10/24 04:50:50;;;;;;;6.43;2.47;;;;;;;;;;6145804;23;20014;-76
2022/10/24 04:53:16;;;;;;;5.75;2.38;;;;;;;;;;6145207;23;20024;-76
2022/10/24 04:55:43;;;;;;;4.97;2.08;;;;;;;;;;6146569;23;20064;-76
2022/10/24 04:58:10;;;;;;;9.10;2.72;;;;;;;;;;6146631;23;20021;-76
2022/10/24 05:00:36;;;;;;;5.50;2.47;;;;;;;;;;6146986;23;20022;-76
2022/10/24 05:03:02;;;;;;;6.10;2.00;;;;;;;;;;6122738;23;20436;-76
2022/10/24 05:05:28;;;;;;;4.20;2.35;;;;;;;;;;6098285;23;20074;-76
2022/10/24 05:07:54;;;;;;;9.88;2.58;;;;;;;;;;6146139;23;20024;-76
2022/10/24 05:10:20;;;;;;;5.35;2.42;;;;;;;;;;6144939;23;20447;-77
2022/10/24 05:12:46;;;;;;;6.75;2.88;;;;;;;;;;6145253;23;20048;-76
2022/10/24 05:15:15;;;;;;;6.00;2.20;;;;;;;;;;6146253;23;20045;-76
2022/10/24 05:17:41;;;;;;;5.35;2.22;;;;;;;;;;6097746;23;20066;-77
2022/10/24 05:20:08;;;;;;;7.45;2.28;;;;;;;;;;6122520;23;20025;-77
2022/10/24 05:22:34;;;;;;;9.57;2.60;;;;;;;;;;6123258;23;20893;-77
2022/10/24 05:25:00;;;;;;;4.40;2.25;;;;;;;;;;6147614;23;20092;-76
2022/10/24 05:27:26;;;;;;;7.22;3.20;;;;;;;;;;6098268;23;20345;-77
2022/10/24 05:29:53;;;;;;;5.85;2.53;;;;;;;;;;6148106;23;20009;-76
2022/10/24 05:32:20;;;;;;;4.43;2.70;;;;;;;;;;6146470;23;20013;-75
2022/10/24 05:34:46;;;;;;;10.38;2.65;;;;;;;;;;6145656;23;20021;-76
2022/10/24 05:37:12;;;;;;;6.88;2.40;;;;;;;;;;6147294;23;20305;-76
2022/10/24 05:39:38;;;;;;;4.05;2.38;;;;;;;;;;6122341;23;20021;-75
2022/10/24 05:42:04;;;;;;;6.65;1.65;;;;;;;;;;6122412;23;20017;-75
2022/10/24 05:44:31;;;;;;;5.68;2.35;;;;;;;;;;6149200;23;20120;-74
2022/10/24 05:46:57;;;;;;;5.50;2.17;;;;;;;;;;6148687;23;20056;-75
2022/10/24 05:49:23;;;;;;;7.80;2.38;;;;;;;;;;6148690;23;20092;-76
2022/10/24 05:51:49;;;;;;;7.75;1.90;;;;;;;;;;6100052;23;20376;-76
2022/10/24 05:54:15;;;;;;;3.28;1.58;;;;;;;;;;6149024;23;20336;-76
2022/10/24 05:56:41;;;;;;;6.30;1.83;;;;;;;;;;6123745;23;20526;-76
2022/10/24 05:59:08;;;;;;;4.25;2.00;;;;;;;;;;6122524;23;20021;-76
2022/10/24 06:01:34;;;;;;;5.32;2.40;;;;;;;;;;6123172;23;20024;-76
2022/10/24 06:04:00;;;;;;;5.43;3.35;;;;;;;;;;6150458;23;20017;-76
2022/10/24 06:06:26;;;;;;;5.88;1.70;;;;;;;;;;6126845;23;20097;-76
2022/10/24 06:08:52;;;;;;;5.28;1.83;;;;;;;;;;6126056;23;20013;-78
2022/10/24 06:11:19;;;;;;;6.20;1.63;;;;;;;;;;6151228;23;20005;-79
2022/10/24 06:13:47;;;;;;;4.90;2.20;;;;;;;;;;6126336;23;20202;-77
2022/10/24 06:16:13;;;;;;;4.78;2.15;;;;;;;;;;6126383;23;20014;-78
2022/10/24 06:18:40;;;;;;;4.95;2.08;;;;;;;;;;6125125;23;20096;-78
2022/10/24 06:21:08;;;;;;;6.32;1.92;;;;;;;;;;6149118;23;20022;-78
2022/10/24 06:23:34;;;;;;;6.82;1.70;;;;;;;;;;6100473;23;20064;-76
2022/10/24 06:26:00;;;;;;;8.30;2.60;;;;;;;;;;6149298;23;20024;-76
2022/10/24 06:28:26;;;;;;;6.07;2.40;;;;;;;;;;6149441;23;20027;-76
2022/10/24 06:30:55;;;;;;;6.57;2.47;;;;;;;;;;6122966;23;20013;-76
2022/10/24 06:33:21;;;;;;;7.28;2.33;;;;;;;;;;6148513;23;20213;-76
2022/10/24 06:35:48;;;;;;;9.82;2.92;;;;;;;;;;6148959;23;20399;-76
2022/10/24 06:38:14;;;;;;;2.95;1.75;;;;;;;;;;6149168;23;20072;-76
2022/10/24 06:40:41;;;;;;;4.63;1.92;;;;;;;;;;6148543;23;20527;-76
2022/10/24 06:43:08;;;;;;;5.30;2.03;;;;;;;;;;6125204;23;20052;-76
2022/10/24 06:45:34;;;;;;;3.80;1.88;;;;;;;;;;6148625;23;20009;-76
2022/10/24 06:48:00;;;;;;;5.45;1.67;;;;;;;;;;6150263;23;20014;-76
2022/10/24 06:50:26;;;;;;;7.95;2.20;;;;;;;;;;6150078;23;20449;-76
2022/10/24 06:52:52;;;;;;;8.05;1.83;;;;;;;;;;6151040;23;20001;-76
2022/10/24 06:55:18;;;;;;;6.95;2.58;;;;;;;;;;6149689;23;20018;-76
2022/10/24 06:57:44;;;;;;;5.95;1.52;;;;;;;;;;6148397;23;20041;-76
2022/10/24 07:00:11;;;;;;;6.00;2.00;;;;;;;;;;6125404;23;20043;-76
2022/10/24 07:02:37;;;;;;;5.07;1.98;;;;;;;;;;6149489;23;20014;-76
2022/10/24 07:05:03;;;;;;;5.55;2.88;;;;;;;;;;6147642;23;20104;-76
2022/10/24 07:07:29;;;;;;;6.47;2.08;;;;;;;;;;6119717;23;20017;-77
2022/10/24 07:09:56;;;;;;;5.55;1.98;;;;;;;;;;6122861;23;20042;-76
2022/10/24 07:12:23;;;;;;;5.50;1.80;;;;;;;;;;6145058;23;20020;-76
2022/10/24 07:14:49;;;;;;;6.43;1.85;;;;;;;;;;6146442;23;20084;-76
2022/10/24 07:17:16;;;;;;;7.90;2.20;;;;;;;;;;6145067;23;20013;-76
2022/10/24 07:19:42;;;;;;;5.68;1.77;;;;;;;;;;6121347;23;20021;-76
2022/10/24 07:22:08;;;;;;;4.18;1.52;;;;;;;;;;6121521;23;20029;-76
2022/10/24 07:24:35;;;;;;;5.65;1.75;;;;;;;;;;6145038;23;20036;-76
2022/10/24 07:27:01;;;;;;;11.07;1.73;;;;;;;;;;6145904;23;20021;-76
2022/10/24 07:29:27;;;;;;;6.20;1.75;;;;;;;;;;6146465;23;20109;-76
2022/10/24 07:31:53;;;;;;;4.63;2.15;;;;;;;;;;6145957;23;20019;-76
2022/10/24 07:34:19;;;;;;;4.75;1.60;;;;;;;;;;6146516;23;20013;-76
2022/10/24 07:36:45;;;;;;;7.15;2.25;;;;;;;;;;6122470;23;20486;-76
2022/10/24 07:39:12;;;;;;;9.07;2.25;;;;;;;;;;6145370;23;20101;-76
2022/10/24 07:41:40;;;;;;;5.25;1.52;;;;;;;;;;6146449;23;20025;-76
2022/10/24 07:44:06;;;;;;;6.57;2.08;;;;;;;;;;6145674;23;20052;-76
2022/10/24 07:46:33;;;;;;;5.43;1.60;;;;;;;;;;6121118;23;20159;-76
2022/10/24 07:48:59;;;;;;;6.85;1.83;;;;;;;;;;6145809;23;20024;-76
2022/10/24 07:51:27;;;;;;;6.38;1.92;;;;;;;;;;6145846;23;20372;-76
2022/10/24 07:53:53;;;;;;;12.20;2.35;;;;;;;;;;6146101;23;20099;-76
2022/10/24 07:56:20;;;;;;;5.65;1.80;;;;;;;;;;6145701;23;20045;-76
2022/10/24 07:58:47;;;;;;;5.68;2.00;;;;;;;;;;6145960;23;20018;-76
2022/10/24 08:01:18;;;;;;;6.50;1.73;;;;;;;;;;6121626;23;20018;-76
2022/10/24 08:03:44;;;;;;;5.03;1.67;;;;;;;;;;6145060;23;20040;-76
2022/10/24 08:06:12;;;;;;;4.75;2.35;;;;;;;;;;6145238;23;20096;-76
2022/10/24 08:08:38;;;;;;;4.95;1.67;;;;;;;;;;6120626;23;20020;-76
2022/10/24 08:11:12;;;;;;;3.97;1.52;;;;;;;;;;6146114;23;20100;-76
2022/10/24 08:13:38;;;;;;;5.65;2.40;;;;;;;;;;6145663;23;20482;-76
2022/10/24 08:16:05;;;;;;;3.90;1.40;;;;;;;;;;6097691;23;20013;-76
2022/10/24 08:18:32;;;;;;;10.38;2.13;;;;;;;;;;6121918;23;20420;-76
2022/10/24 08:21:02;;;;;;;7.22;1.95;;;;;;;;;;6118993;23;20026;-76
2022/10/24 08:23:28;;;;;;;5.25;1.60;;;;;;;;;;6146381;23;20148;-76
2022/10/24 08:25:54;;;;;;;4.97;1.70;;;;;;;;;;6147447;23;20383;-76
2022/10/24 08:28:22;;;;;;;3.42;1.70;;;;;;;;;;6096594;23;20302;-76
2022/10/24 08:30:58;;;;;;;5.85;2.05;;;;;;;;;;6145792;23;20230;-76
2022/10/24 08:33:24;;;;;;;14.38;3.63;;;;;;;;;;6146584;23;20336;-76
2022/10/24 08:35:51;;;;;;;4.90;1.75;;;;;;;;;;6122456;23;20010;-76
2022/10/24 08:38:17;;;;;;;12.45;3.00;;;;;;;;;;6097919;23;20028;-76
2022/10/24 08:40:47;;;;;;;6.00;1.80;;;;;;;;;;6146299;23;20079;-76
2022/10/24 08:43:13;;;;;;;9.40;2.50;;;;;;;;;;6147327;23;20097;-76
2022/10/24 08:46:03;;;;;;;11.52;2.05;;;;;;;;;;6121761;23;20021;-76
2022/10/24 08:48:32;;;;;;;10.90;2.00;;;;;;;;;;6108134;23;20060;-76
2022/10/24 08:51:18;;;;;;;5.55;1.42;;;;;;;;;;6146042;23;20289;-76
2022/10/24 08:53:45;;;;;;;9.95;2.58;;;;;;;;;;6146080;23;20325;-76
2022/10/24 08:56:11;;;;;;;7.35;1.75;;;;;;;;;;6146439;23;20320;-76
2022/10/24 08:58:42;;;;;;;6.57;1.83;;;;;;;;;;6121582;23;20025;-76
2022/10/24 09:01:13;;;;;;;7.35;1.40;;;;;;;;;;6148637;23;20470;-76
2022/10/24 09:03:42;;;;;;;5.53;1.63;;;;;;;;;;6145752;23;20021;-77
2022/10/24 09:06:28;;;;;;;6.28;2.30;;;;;;;;;;6121625;23;20027;-76
2022/10/24 09:08:57;;;;;;;9.07;2.25;;;;;;;;;;6147464;23;20020;-77
2022/10/24 09:11:23;;;;;;;7.70;2.22;;;;;;;;;;6146894;23;20018;-77
2022/10/24 09:13:49;;;;;;;5.10;1.77;;;;;;;;;;6121597;23;20088;-77
2022/10/24 09:16:19;;;;;;;6.55;1.92;;;;;;;;;;6147238;23;20013;-77
2022/10/24 09:18:46;;;;;;;8.20;2.58;;;;;;;;;;6120153;23;20155;-77
2022/10/24 09:21:14;;;;;;;7.05;1.77;;;;;;;;;;6143975;23;20108;-77
2022/10/24 09:23:41;;;;;;;5.53;2.10;;;;;;;;;;6145514;23;20028;-76
2022/10/24 09:26:13;;;;;;;5.85;2.00;;;;;;;;;;6144112;23;20065;-76
2022/10/24 09:28:39;;;;;;;5.25;2.08;;;;;;;;;;6144106;23;20455;-76
2022/10/24 09:31:16;;;;;;;6.75;1.90;;;;;;;;;;6143826;23;20068;-76
2022/10/24 09:33:42;;;;;;;5.28;1.75;;;;;;;;;;6144642;23;20013;-76
2022/10/24 09:36:09;;;;;;;4.32;1.73;;;;;;;;;;6144054;23;20013;-76
2022/10/24 09:38:36;;;;;;;4.88;2.00;;;;;;;;;;6145396;23;20014;-76
2022/10/24 09:41:07;;;;;;;6.18;2.25;;;;;;;;;;6147300;23;20023;-77
2022/10/24 09:43:54;;;;;;;4.35;2.35;;;;;;;;;;6147999;23;20017;-76
2022/10/24 09:46:29;;;;;;;6.40;2.47;;;;;;;;;;6146555;23;20072;-76
2022/10/24 09:48:55;;;;;;;7.55;2.53;;;;;;;;;;6147379;23;20017;-76
2022/10/24 09:51:24;;;;;;;8.57;2.05;;;;;;;;;;6146907;23;20067;-76
2022/10/24 09:54:05;;;;;;;6.25;1.85;;;;;;;;;;6121089;23;20018;-77
2022/10/24 09:56:41;;;;;;;7.82;2.15;;;;;;;;;;6147348;23;20013;-76
2022/10/24 09:59:18;;;;;;;4.65;1.75;;;;;;;;;;6146825;23;20020;-76
2022/10/24 10:01:44;;;;;;;7.70;2.42;;;;;;;;;;6123116;23;20253;-76
2022/10/24 10:04:16;;;;;;;4.57;2.00;;;;;;;;;;6146477;23;20261;-76
2022/10/24 10:06:46;;;;;;;6.75;2.17;;;;;;;;;;6146310;23;20464;-76
2022/10/24 10:09:13;;;;;;;8.82;2.70;;;;;;;;;;6123343;23;20044;-77
2022/10/24 10:11:40;;;;;;;13.52;3.08;;;;;;;;;;6147057;23;20013;-76
2022/10/24 10:14:19;;;;;;;9.00;2.47;;;;;;;;;;6146205;23;20010;-76
2022/10/24 10:16:45;;;;;;;4.53;1.70;;;;;;;;;;6146070;23;20048;-76
2022/10/24 10:19:18;;;;;;;6.60;2.53;;;;;;;;;;6146226;23;20123;-77
2022/10/24 10:21:58;;;;;;;6.85;2.17;;;;;;;;;;6147857;23;20021;-76
2022/10/24 10:24:45;;;;;;;5.82;2.42;;;;;;;;;;6146416;23;20373;-76
2022/10/24 10:27:30;;;;;;;12.43;2.53;;;;;;;;;;6146812;23;20022;-76
2022/10/24 10:30:12;;;;;;;7.93;2.40;;;;;;;;;;6146767;23;20018;-76
2022/10/24 10:32:38;;;;;;;6.13;2.50;;;;;;;;;;6121502;23;20478;-76
2022/10/24 10:35:13;;;;;;;12.13;2.92;;;;;;;;;;6146799;23;20021;-76
2022/10/24 10:37:44;;;;;;;7.65;2.65;;;;;;;;;;6147570;23;20017;-76
2022/10/24 10:40:16;;;;;;;9.55;2.58;;;;;;;;;;6120052;23;20017;-76
2022/10/24 10:42:42;;;;;;;6.93;2.20;;;;;;;;;;6146432;23;20009;-76
2022/10/24 10:45:15;;;;;;;7.03;3.13;;;;;;;;;;6146301;23;20072;-77
2022/10/24 10:47:53;;;;;;;9.60;3.05;;;;;;;;;;6146466;23;20020;-76
2022/10/24 10:50:35;;;;;;;12.40;2.92;;;;;;;;;;6146654;23;20014;-76
2022/10/24 10:53:10;;;;;;;8.95;3.13;;;;;;;;;;6123076;23;20013;-76
2022/10/24 10:55:47;;;;;;;8.00;2.40;;;;;;;;;;6146900;23;20444;-76
2022/10/24 10:58:32;;;;;;;7.10;2.88;;;;;;;;;;6145973;23;20321;-77
2022/10/24 11:01:11;;;;;;;14.13;3.10;;;;;;;;;;6142942;23;20032;-77
2022/10/24 11:03:44;;;;;;;8.38;2.88;;;;;;;;;;6145266;23;20399;-77
2022/10/24 11:06:33;;;;;;;6.60;2.33;;;;;;;;;;6120542;23;20017;-77
2022/10/24 11:09:23;;;;;;;8.50;2.65;;;;;;;;;;6142856;23;20515;-77
2022/10/24 11:11:54;;;;;;;11.05;3.45;;;;;;;;;;6142629;23;20049;-76
2022/10/24 11:14:32;;;;;;;12.05;3.08;;;;;;;;;;6119686;23;20093;-77
2022/10/24 11:17:04;;;;;;;8.05;2.63;;;;;;;;;;6121050;23;20017;-76
2022/10/24 11:19:39;;;;;;;9.50;3.17;;;;;;;;;;6144371;23;20092;-77
2022/10/24 11:22:08;;;;;;;9.85;2.92;;;;;;;;;;6144187;23;20495;-76
2022/10/24 11:24:43;;;;;;;12.63;3.30;;;;;;;;;;6142222;23;20021;-76
2022/10/24 11:27:13;;;;;;;7.18;2.15;;;;;;;;;;6142186;23;20021;-76
2022/10/24 11:29:52;;;;;;;9.68;2.95;;;;;;;;;;6141407;23;20278;-77
2022/10/24 11:32:33;;;;;;;5.55;2.15;;;;;;;;;;6140583;23;20152;-76
2022/10/24 11:35:19;;;;;;;9.07;3.20;;;;;;;;;;6142255;23;20052;-77
2022/10/24 11:37:46;;;;;;;7.80;3.33;;;;;;;;;;6118484;23;20073;-76
2022/10/24 11:40:14;;;;;;;8.48;2.85;;;;;;;;;;6144338;23;20013;-76
2022/10/24 11:42:43;;;;;;;11.98;3.22;;;;;;;;;;6145388;23;20013;-77
2022/10/24 11:45:25;;;;;;;12.38;2.90;;;;;;;;;;6145285;23;20017;-76
2022/10/24 11:48:10;;;;;;;5.30;2.30;;;;;;;;;;6144901;23;20014;-76
2022/10/24 11:50:55;;;;;;;8.48;3.35;;;;;;;;;;6142305;23;20412;-76
2022/10/24 11:53:30;;;;;;;9.38;3.22;;;;;;;;;;6116870;23;20010;-76
2022/10/24 11:55:59;;;;;;;13.57;3.63;;;;;;;;;;6140168;23;20273;-76
2022/10/24 11:58:26;;;;;;;12.18;4.88;;;;;;;;;;6142183;23;20679;-76
2022/10/24 12:01:11;;;;;;;8.75;2.70;;;;;;;;;;6142677;23;20049;-76
2022/10/24 12:03:37;;;;;;;12.23;2.40;;;;;;;;;;6142113;23;20387;-76
2022/10/24 12:06:13;;;;;;;8.48;3.20;;;;;;;;;;6141343;23;20048;-76
2022/10/24 12:08:59;;;;;;;10.02;3.80;;;;;;;;;;6141926;23;20014;-77
2022/10/24 12:11:25;;;;;;;9.85;2.85;;;;;;;;;;6142295;23;20114;-76
2022/10/24 12:13:58;;;;;;;7.50;3.17;;;;;;;;;;6142769;23;20024;-76
2022/10/24 12:16:27;;;;;;;10.60;3.67;;;;;;;;;;6139677;23;20044;-76
2022/10/24 12:19:05;;;;;;;11.90;3.63;;;;;;;;;;6143550;23;20787;-76
2022/10/24 12:21:37;;;;;;;9.23;3.60;;;;;;;;;;6143700;23;20463;-76
2022/10/24 12:24:03;;;;;;;12.17;3.00;;;;;;;;;;6143082;23;20025;-76
2022/10/24 12:26:34;;;;;;;9.00;3.08;;;;;;;;;;6118552;23;20245;-77
2022/10/24 12:29:07;;;;;;;9.32;3.75;;;;;;;;;;6142558;23;20021;-76
2022/10/24 12:31:37;;;;;;;14.07;3.65;;;;;;;;;;6142605;23;20013;-76
2022/10/24 12:34:17;;;;;;;10.25;3.47;;;;;;;;;;6143155;23;20100;-76
2022/10/24 12:37:10;;;;;;;10.90;3.85;;;;;;;;;;6142409;23;20128;-76
2022/10/24 12:39:39;;;;;;;8.45;2.70;;;;;;;;;;6142423;23;20095;-76
2022/10/24 12:42:12;;;;;;;11.35;2.78;;;;;;;;;;6142266;23;20456;-76
2022/10/24 12:44:40;;;;;;;8.30;2.22;;;;;;;;;;6143457;23;20025;-76
2022/10/24 12:47:25;;;;;;;7.38;2.70;;;;;;;;;;6142870;23;20017;-76
2022/10/24 12:49:51;;;;;;;6.75;1.98;;;;;;;;;;6142000;23;20124;-76
2022/10/24 12:52:46;;;;;;;6.72;2.38;;;;;;;;;;6142268;23;20325;-77
2022/10/24 12:55:31;;;;;;;4.28;1.85;;;;;;;;;;6110872;23;20333;-76
2022/10/24 12:57:58;;;;;;;4.70;1.80;;;;;;;;;;6118052;23;20029;-76
2022/10/24 13:00:26;;;;;;;4.25;1.80;;;;;;;;;;6142943;23;20021;-76
2022/10/24 13:02:55;;;;;;;5.35;1.75;;;;;;;;;;6118354;23;20021;-76
2022/10/24 13:05:41;;;;;;;3.85;1.77;;;;;;;;;;6141760;23;20021;-76
2022/10/24 13:08:34;;;;;;;8.20;2.20;;;;;;;;;;6141932;23;20025;-76
2022/10/24 13:11:19;;;;;;;4.60;1.65;;;;;;;;;;6142451;23;20448;-79
2022/10/24 13:13:58;;;;;;;5.68;2.40;;;;;;;;;;6143327;23;20024;-79
2022/10/24 13:16:24;;;;;;;12.07;2.67;;;;;;;;;;6142594;23;20321;-79
2022/10/24 13:18:54;;;;;;;15.02;3.70;;;;;;;;;;6092190;23;20420;-79
2022/10/24 13:21:29;;;;;;;6.90;2.53;;;;;;;;;;6111892;23;20037;-78
2022/10/24 13:24:16;;;;;;;7.13;2.22;;;;;;;;;;6113207;23;20101;-76
2022/10/24 13:26:47;;;;;;;10.65;2.83;;;;;;;;;;6073850;23;20408;-76
2022/10/24 13:29:33;;;;;;;10.35;3.85;;;;;;;;;;6112882;23;20374;-76
2022/10/24 13:32:05;;;;;;;8.82;3.20;;;;;;;;;;6111484;23;20100;-76
2022/10/24 13:34:51;;;;;;;6.15;2.22;;;;;;;;;;6112718;23;20432;-76
2022/10/24 13:37:40;;;;;;;8.80;3.13;;;;;;;;;;6114202;23;20021;-81
2022/10/24 13:40:09;;;;;;;9.43;2.15;;;;;;;;;;6112797;23;20511;-80
2022/10/24 13:42:37;;;;;;;7.40;3.28;;;;;;;;;;6114366;23;20037;-81
2022/10/24 13:45:21;;;;;;;7.80;2.42;;;;;;;;;;6114081;23;20096;-80
2022/10/24 13:47:56;;;;;;;8.30;3.28;;;;;;;;;;6112532;23;20434;-80
2022/10/24 13:50:30;;;;;;;7.85;2.47;;;;;;;;;;6113508;23;20014;-80
2022/10/24 13:52:58;;;;;;;12.25;3.20;;;;;;;;;;6116350;23;20018;-80
2022/10/24 13:55:30;;;;;;;6.50;2.55;;;;;;;;;;6112467;23;20093;-80
2022/10/24 13:58:01;;;;;;;9.75;2.75;;;;;;;;;;6113001;23;20081;-80
2022/10/24 14:00:29;;;;;;;4.57;2.53;;;;;;;;;;6113943;23;20397;-80
2022/10/24 14:02:56;;;;;;;8.73;2.58;;;;;;;;;;6089405;23;20387;-81
2022/10/24 14:05:29;;;;;;;8.75;2.80;;;;;;;;;;6113809;23;20021;-81
2022/10/24 14:07:56;;;;;;;4.40;2.28;;;;;;;;;;6066301;23;20053;-80
2022/10/24 14:10:22;;;;;;;8.65;2.78;;;;;;;;;;6112371;23;20065;-80
2022/10/24 14:12:55;;;;;;;7.55;2.08;;;;;;;;;;6065331;23;20022;-80
2022/10/24 14:15:22;;;;;;;5.18;2.17;;;;;;;;;;6115158;23;20651;-81
2022/10/24 14:17:59;;;;;;;5.47;1.83;;;;;;;;;;6088752;23;20452;-81
2022/10/24 14:20:27;;;;;;;9.40;2.55;;;;;;;;;;6089410;23;20018;-80
2022/10/24 14:22:54;;;;;;;5.25;1.80;;;;;;;;;;6112472;23;20022;-80
2022/10/24 14:25:25;;;;;;;5.20;2.30;;;;;;;;;;6114233;23;20029;-80
2022/10/24 14:27:54;;;;;;;4.75;2.17;;;;;;;;;;6115777;23;20024;-80
2022/10/24 14:30:21;;;;;;;8.00;2.40;;;;;;;;;;6115070;23;20049;-80
2022/10/24 14:32:48;;;;;;;8.52;2.22;;;;;;;;;;6115759;23;20017;-80
2022/10/24 14:35:14;;;;;;;11.73;2.83;;;;;;;;;;6092039;23;20354;-81
2022/10/24 14:37:41;;;;;;;14.60;3.00;;;;;;;;;;6118972;23;20045;-80
2022/10/24 14:40:25;;;;;;;9.65;2.45;;;;;;;;;;6097122;23;20028;-80
2022/10/24 14:42:52;;;;;;;9.82;2.72;;;;;;;;;;6121602;23;20054;-80
2022/10/24 14:45:22;;;;;;;11.13;2.47;;;;;;;;;;6092326;23;20037;-80
2022/10/24 14:47:53;;;;;;;10.45;2.25;;;;;;;;;;6116081;23;20431;-80
2022/10/24 14:50:40;;;;;;;12.32;3.70;;;;;;;;;;6115880;23;20024;-80
2022/10/24 14:53:06;;;;;;;9.18;3.05;;;;;;;;;;6116594;23;20348;-80
2022/10/24 14:55:33;;;;;;;10.60;2.80;;;;;;;;;;6116172;23;20014;-80
2022/10/24 14:57:59;;;;;;;11.32;2.63;;;;;;;;;;6115749;23;20397;-80